CheckWX is a tool to help pilots better visualize weather data.  It is not intended as a substitute for an official pre-flight weather briefing.

17:02:52 UTC

KTQH METAR
Tahlequah Municipal Airport
Tahlequah, Oklahoma, USA
Current

8 mins ago

KTQH 241655Z AUTO 30011KT 10SM OVC018 01/00 A3011 RMK AO2
Observed
Jan-24 @ 16:55 UTC
Wind
  • 300° at 11 KTS
Visibility
10 SM
Flight Rules
MVFR
Cloud Levels
  • Overcast at 1,800' AGL
Temperature
C / 34°F
Dewpoint
C / 32°F
Humidity
93%
Altimeter
30.11" Hg
Pressure
1019.62 hPa
Previous

28 mins ago

KTQH 241635Z AUTO 30012G15KT 10SM OVC016 01/00 A3011 RMK AO2
Observed
Jan-24 @ 16:35 UTC
Wind
  • 300° at 12 KTS
  • Gusting to 15 KTS
Visibility
10 SM
Flight Rules
MVFR
Cloud Levels
  • Overcast at 1,600' AGL
Temperature
C / 34°F
Dewpoint
C / 32°F
Humidity
93%
Altimeter
30.11" Hg
Pressure
1019.62 hPa
Previous

48 mins ago

KTQH 241615Z AUTO 29008KT 10SM OVC016 00/00 A3011 RMK AO2
Observed
Jan-24 @ 16:15 UTC
Wind
  • 290° at 8 KTS
Visibility
10 SM
Flight Rules
MVFR
Cloud Levels
  • Overcast at 1,600' AGL
Temperature
C / 32°F
Dewpoint
C / 32°F
Humidity
100%
Altimeter
30.11" Hg
Pressure
1019.62 hPa